Time;durP1;ratioP1;P1;durP2;ratioP2;P2;SDS_P1;SDS_P2;PMS_P1;PMS_P2;Temp;Humidity;BMP_temperature;BMP_pressure;BME280_temperature;BME280_humidity;BME280_pressure;Samples;Min_cycle;Max_cycle;Signal;HPM_P1;HPM_P2
2021/05/20 04:43:14;;;;;;;6.05;1.75;;;;;;;13.05;80.67;99231.69;1742646;81;21122;-44
2021/05/20 04:45:44;;;;;;;6.55;2.80;;;;;;;13.21;79.90;99216.84;1740769;81;21129;-38
2021/05/20 04:48:09;;;;;;;4.00;2.00;;;;;;;13.30;79.84;99224.47;1734844;81;21095;-38
2021/05/20 04:50:37;;;;;;;5.72;2.52;;;;;;;13.39;79.36;99228.59;1730656;81;21354;-44
2021/05/20 04:53:03;;;;;;;2.80;2.02;;;;;;;13.48;79.19;99229.66;1730443;81;21673;-42
2021/05/20 04:55:30;;;;;;;2.47;1.98;;;;;;;13.57;78.81;99228.95;1734900;81;21010;-37
2021/05/20 04:57:57;;;;;;;2.70;1.98;;;;;;;13.62;76.74;99235.81;1722605;81;21099;-43
2021/05/20 05:00:24;;;;;;;6.47;2.50;;;;;;;13.65;77.11;99235.29;1728266;81;20995;-38
2021/05/20 05:02:51;;;;;;;3.70;2.05;;;;;;;13.69;76.29;99243.95;1724121;81;21094;-38
2021/05/20 05:05:18;;;;;;;4.08;1.85;;;;;;;13.71;76.02;99224.59;1733567;81;21020;-38
2021/05/20 05:07:46;;;;;;;1.92;1.72;;;;;;;13.74;75.91;99227.56;1719757;81;21638;-40
2021/05/20 05:10:13;;;;;;;3.42;1.95;;;;;;;13.79;76.82;99221.27;1704156;81;21051;-39
2021/05/20 05:12:41;;;;;;;3.65;1.50;;;;;;;13.88;76.75;99225.86;1683148;83;21784;-41
2021/05/20 05:15:09;;;;;;;1.80;1.70;;;;;;;13.97;73.99;99231.67;1726438;80;21531;-38
2021/05/20 05:17:37;;;;;;;1.50;1.40;;;;;;;14.05;73.79;99223.12;1730577;81;21127;-43
2021/05/20 05:20:07;;;;;;;3.77;1.40;;;;;;;14.14;74.19;99215.84;1722211;81;22337;-38
2021/05/20 05:22:35;;;;;;;1.90;1.45;;;;;;;14.22;74.21;99226.54;1730198;81;21194;-37
2021/05/20 05:25:02;;;;;;;3.02;1.65;;;;;;;14.31;72.39;99215.70;1723861;81;21126;-38
2021/05/20 05:27:29;;;;;;;4.28;1.70;;;;;;;14.36;70.81;99228.26;1715905;81;21127;-38
2021/05/20 05:34:37;;;;;;;1.82;1.12;;;;;;;14.49;70.92;99230.06;1714642;81;21425;-38
2021/05/20 05:38:20;;;;;;;1.35;1.25;;;;;;;14.62;70.58;99217.38;1697950;81;21510;-37
2021/05/20 05:42:06;;;;;;;3.70;1.25;;;;;;;14.71;68.39;99225.41;1654000;84;21086;-39
2021/05/20 05:48:37;;;;;;;;;;;;;;;14.83;67.37;99214.00;1720489;81;21110;-38
2021/05/20 05:52:17;;;;;;;1.10;1.00;;;;;;;14.95;68.35;99222.39;1720008;81;20564;-42
2021/05/20 05:55:06;;;;;;;2.17;1.70;;;;;;;15.03;68.72;99210.70;1718745;81;22051;-38
2021/05/20 05:57:39;;;;;;;3.92;1.95;;;;;;;15.09;66.62;99219.70;1719045;81;21702;-40
2021/05/20 06:00:07;;;;;;;5.53;2.55;;;;;;;15.15;68.66;99221.25;1718386;81;21071;-38
2021/05/20 06:02:35;;;;;;;1.92;1.30;;;;;;;15.23;68.19;99224.46;1727874;81;21689;-44
2021/05/20 06:05:04;;;;;;;8.85;2.00;;;;;;;15.31;66.75;99214.98;1719739;81;21063;-38
2021/05/20 06:07:35;;;;;;;3.10;1.55;;;;;;;15.37;65.59;99223.52;1722873;81;21710;-44
2021/05/20 06:10:05;;;;;;;1.87;1.50;;;;;;;15.39;64.57;99220.36;1716251;81;21095;-44
2021/05/20 06:12:32;;;;;;;1.60;1.05;;;;;;;15.38;64.13;99223.06;1716636;81;21564;-44
2021/05/20 06:14:59;;;;;;;1.85;1.30;;;;;;;15.36;63.91;99245.49;1716379;81;21952;-38
2021/05/20 06:17:26;;;;;;;1.50;0.90;;;;;;;15.39;64.15;99240.59;1714886;81;21079;-44
2021/05/20 06:19:53;;;;;;;1.60;0.90;;;;;;;15.44;64.10;99237.33;1714926;81;21122;-45
2021/05/20 06:23:01;;;;;;;1.92;1.10;;;;;;;15.50;63.30;99245.47;1721281;81;21677;-39
2021/05/20 06:26:56;;;;;;;1.42;0.88;;;;;;;15.53;61.28;99258.06;1712408;81;21051;-45
2021/05/20 06:33:58;;;;;;;;;;;;;;;15.70;61.81;99236.38;1718667;81;21182;-39
2021/05/20 06:37:56;;;;;;;4.60;1.30;;;;;;;15.80;62.82;99233.81;1721163;81;20683;-39
2021/05/20 06:40:29;;;;;;;2.37;1.20;;;;;;;15.86;61.82;99231.40;1709911;81;21641;-39
2021/05/20 06:42:56;;;;;;;4.50;1.30;;;;;;;15.82;63.31;99247.78;1720318;81;21103;-45
2021/05/20 06:45:24;;;;;;;2.75;1.17;;;;;;;15.80;62.06;99240.40;1714660;81;21095;-40
2021/05/20 06:47:55;;;;;;;8.20;1.15;;;;;;;15.77;62.02;99243.60;1716826;81;21634;-43
2021/05/20 06:50:23;;;;;;;2.65;1.20;;;;;;;15.74;61.77;99239.31;1723408;81;21674;-38
2021/05/20 06:52:52;;;;;;;1.95;1.17;;;;;;;15.77;62.22;99252.83;1723467;81;21095;-38
2021/05/20 06:55:19;;;;;;;3.60;1.20;;;;;;;15.86;63.81;99236.21;1729130;81;21070;-44
2021/05/20 07:00:32;;;;;;;3.55;1.10;;;;;;;16.03;61.23;99248.75;1713624;81;21034;-38
2021/05/20 07:03:00;;;;;;;2.25;1.07;;;;;;;16.04;60.13;99250.47;1719466;81;21520;-38
2021/05/20 07:05:27;;;;;;;3.52;1.57;;;;;;;16.08;61.47;99240.20;1716993;81;21423;-38
2021/05/20 07:07:54;;;;;;;2.05;1.20;;;;;;;16.18;62.87;99248.63;1719278;81;21166;-38
2021/05/20 07:10:24;;;;;;;2.05;1.20;;;;;;;16.30;64.29;99238.91;1719880;81;21111;-45
2021/05/20 07:12:57;;;;;;;1.92;0.90;;;;;;;16.37;61.61;99239.05;1723069;81;21135;-42
2021/05/20 07:15:25;;;;;;;3.90;1.20;;;;;;;16.39;60.09;99233.23;1673100;81;21840;-38
2021/05/20 07:17:51;;;;;;;0.82;0.82;;;;;;;16.39;60.16;99237.20;1720644;81;21142;-43
2021/05/20 07:24:10;;;;;;;0.98;0.93;;;;;;;16.40;59.96;99249.93;1718315;81;21663;-38
2021/05/20 07:31:00;;;;;;;1.40;0.85;;;;;;;16.65;63.46;99257.27;1723390;81;21115;-44
2021/05/20 07:33:28;;;;;;;1.98;0.88;;;;;;;16.93;60.99;99275.52;1724834;81;21142;-45
2021/05/20 07:35:54;;;;;;;1.42;0.98;;;;;;;17.07;58.67;99246.31;1726645;81;21545;-45
2021/05/20 07:38:21;;;;;;;3.62;1.27;;;;;;;17.17;58.50;99247.64;1665100;84;21134;-40
2021/05/20 07:40:48;;;;;;;4.40;1.07;;;;;;;17.27;58.32;99251.58;1681380;83;21677;-39
2021/05/20 07:43:16;;;;;;;3.25;1.17;;;;;;;17.35;58.32;99238.90;1716872;81;21762;-46
2021/05/20 07:45:43;;;;;;;0.65;0.65;;;;;;;17.37;60.56;99253.37;1709009;81;21082;-39
2021/05/20 07:48:10;;;;;;;2.35;1.20;;;;;;;17.39;57.07;99260.29;1731017;81;21114;-41
2021/05/20 07:50:37;;;;;;;1.20;0.80;;;;;;;17.39;58.46;99261.61;1726093;81;21695;-40
2021/05/20 07:53:04;;;;;;;1.92;0.93;;;;;;;17.43;57.74;99254.41;1727857;81;21117;-40
2021/05/20 07:55:30;;;;;;;1.98;0.90;;;;;;;17.45;58.66;99260.05;1731050;81;21675;-40
2021/05/20 07:57:59;;;;;;;1.42;1.05;;;;;;;17.45;56.80;99268.41;1663317;84;21105;-44
2021/05/20 08:00:28;;;;;;;2.50;1.00;;;;;;;17.41;57.00;99261.56;1724353;81;21124;-44
2021/05/20 08:03:05;;;;;;;8.65;1.00;;;;;;;17.38;57.04;99270.94;1728308;81;21760;-39
2021/05/20 08:08:07;;;;;;;2.05;0.93;;;;;;;17.55;55.37;99304.11;1731406;81;21650;-41
2021/05/20 08:10:44;;;;;;;0.88;0.88;;;;;;;17.58;55.72;99285.94;1719621;81;21468;-39
2021/05/20 08:12:58;;;;;;;0.82;0.80;;;;;;;17.63;56.63;99287.45;1718318;81;21164;-46
2021/05/20 08:15:26;;;;;;;3.62;1.10;;;;;;;17.65;54.69;99301.45;1723697;81;21872;-46
2021/05/20 08:17:53;;;;;;;1.90;1.05;;;;;;;17.64;55.13;99299.75;1723294;81;21437;-45
2021/05/20 08:20:22;;;;;;;1.75;1.07;;;;;;;17.65;56.04;99298.81;1727802;81;21453;-46
2021/05/20 08:22:48;;;;;;;2.95;1.17;;;;;;;17.70;56.65;99300.80;1726836;81;21146;-40
2021/05/20 08:25:15;;;;;;;2.67;0.88;;;;;;;17.77;54.56;99314.63;1725409;81;21067;-38
2021/05/20 08:27:48;;;;;;;2.25;1.20;;;;;;;17.78;54.42;99311.05;1722589;81;21695;-45
2021/05/20 08:30:27;;;;;;;1.07;0.85;;;;;;;17.87;55.96;99304.03;1728896;81;21075;-44
2021/05/20 08:32:55;;;;;;;1.65;0.90;;;;;;;17.97;55.43;99297.38;1709136;81;21216;-39
2021/05/20 08:35:25;;;;;;;2.17;1.10;;;;;;;18.04;54.21;99304.12;1723353;81;21079;-46
2021/05/20 08:37:54;;;;;;;2.37;0.90;;;;;;;18.02;54.96;99309.93;1728689;81;21056;-45
2021/05/20 08:40:22;;;;;;;1.57;0.95;;;;;;;17.99;56.41;99306.59;1723194;81;21126;-40
2021/05/20 08:42:49;;;;;;;3.77;1.00;;;;;;;18.00;56.64;99305.66;1726532;81;21684;-45
2021/05/20 08:45:24;;;;;;;4.75;1.12;;;;;;;18.00;57.02;99308.30;1726089;81;21122;-46
2021/05/20 08:47:52;;;;;;;1.40;1.30;;;;;;;18.02;56.07;99309.08;1721242;81;21150;-40
2021/05/20 08:50:21;;;;;;;1.17;0.98;;;;;;;18.04;55.32;99314.71;1721085;81;21130;-46
2021/05/20 08:52:49;;;;;;;3.45;1.07;;;;;;;18.04;55.06;99309.88;1723220;81;21103;-44
2021/05/20 08:55:22;;;;;;;3.17;0.90;;;;;;;18.01;56.05;99315.30;1717678;81;21063;-39
2021/05/20 08:57:49;;;;;;;3.33;0.90;;;;;;;18.00;56.99;99318.88;1718222;81;21150;-39
2021/05/20 09:00:20;;;;;;;0.80;0.80;;;;;;;18.02;55.85;99319.19;1721441;81;21404;-38
2021/05/20 09:02:48;;;;;;;2.30;0.93;;;;;;;18.03;55.36;99318.29;1712325;81;21076;-40
2021/05/20 09:05:18;;;;;;;4.12;1.02;;;;;;;18.10;55.08;99320.66;1726113;81;21156;-39
2021/05/20 09:07:53;;;;;;;1.20;0.90;;;;;;;18.17;55.33;99325.58;1716359;81;21150;-39
2021/05/20 09:10:28;;;;;;;2.60;0.93;;;;;;;18.24;53.38;99324.36;1717740;81;21472;-45
2021/05/20 09:13:09;;;;;;;1.80;1.00;;;;;;;18.31;53.09;99322.28;1722229;81;21091;-38
2021/05/20 09:15:49;;;;;;;0.95;0.88;;;;;;;18.38;54.14;99326.38;1720544;80;21100;-39
2021/05/20 09:18:24;;;;;;;2.58;1.05;;;;;;;18.47;54.54;99320.63;1719108;81;21637;-39
2021/05/20 09:20:59;;;;;;;2.15;0.85;;;;;;;18.57;55.03;99328.53;1677003;83;21082;-40
2021/05/20 09:23:32;;;;;;;1.75;0.80;;;;;;;18.66;55.68;99324.57;1700965;81;21460;-38
2021/05/20 09:26:13;;;;;;;2.47;0.82;;;;;;;18.76;51.81;99329.86;1722830;81;21699;-39
2021/05/20 09:29:17;;;;;;;3.40;0.88;;;;;;;18.83;53.94;99335.71;1712781;81;21076;-45
2021/05/20 09:31:47;;;;;;;1.12;0.90;;;;;;;18.97;54.80;99323.98;1714281;81;21038;-45
2021/05/20 09:38:26;;;;;;;3.08;1.42;;;;;;;19.13;52.27;99315.66;1721041;81;21440;-45
2021/05/20 09:41:03;;;;;;;1.22;0.93;;;;;;;19.17;52.04;99324.30;1718616;81;21087;-39
2021/05/20 09:43:38;;;;;;;1.05;0.90;;;;;;;19.16;53.33;99316.42;1681445;81;21095;-39
2021/05/20 09:46:15;;;;;;;1.40;1.00;;;;;;;19.16;52.06;99317.28;1719483;81;21154;-45
2021/05/20 09:48:46;;;;;;;3.90;1.10;;;;;;;19.14;53.01;99316.04;1718527;81;21126;-38
2021/05/20 09:51:26;;;;;;;1.65;0.90;;;;;;;19.18;52.93;99324.67;1683178;83;21425;-46
2021/05/20 09:54:05;;;;;;;1.75;0.80;;;;;;;19.19;53.03;99326.86;1724392;81;21044;-44
2021/05/20 09:56:40;;;;;;;0.80;0.80;;;;;;;19.13;52.31;99334.22;1681005;83;21117;-45
2021/05/20 09:59:11;;;;;;;;;;;;;;;19.04;51.91;99334.66;1724319;81;21600;-38
2021/05/20 10:02:20;;;;;;;3.12;0.98;;;;;;;19.06;52.04;99331.92;1716055;81;20184;-40
2021/05/20 10:04:57;;;;;;;0.85;0.80;;;;;;;19.18;51.02;99333.10;1717043;81;20996;-50
2021/05/20 10:07:55;;;;;;;1.40;0.75;;;;;;;19.37;50.12;99324.16;1700992;81;21421;-40
2021/05/20 10:10:54;;;;;;;3.70;0.88;;;;;;;19.48;49.83;99335.54;1719320;81;21183;-38
2021/05/20 10:13:26;;;;;;;3.72;0.80;;;;;;;19.56;51.73;99325.84;1721984;81;21259;-39
2021/05/20 10:15:56;;;;;;;2.92;0.70;;;;;;;19.66;49.25;99332.44;1724106;80;21472;-46
2021/05/20 10:18:27;;;;;;;1.47;0.72;;;;;;;19.75;48.37;99336.38;1698978;81;22322;-38
2021/05/20 10:21:06;;;;;;;2.98;0.80;;;;;;;19.78;48.93;99329.60;1680570;83;21111;-38
2021/05/20 10:32:56;;;;;;;2.10;1.50;;;;;;;19.88;47.86;99322.37;1722242;81;21096;-38
2021/05/20 10:36:18;;;;;;;6.17;0.80;;;;;;;20.14;46.39;99333.40;1726789;81;21072;-38
2021/05/20 10:39:34;;;;;;;3.55;1.07;;;;;;;20.52;46.76;99327.31;1721173;81;21117;-42
2021/05/20 10:42:42;;;;;;;1.07;0.95;;;;;;;20.62;46.04;99336.48;1727008;81;21123;-38
2021/05/20 10:45:27;;;;;;;0.85;0.85;;;;;;;20.69;45.90;99340.51;1725836;81;21067;-46
2021/05/20 10:48:18;;;;;;;3.12;0.78;;;;;;;20.59;44.69;99332.70;1713488;81;21098;-39
2021/05/20 10:50:56;;;;;;;1.55;0.90;;;;;;;20.50;46.23;99350.47;1724758;81;21193;-37
2021/05/20 10:53:50;;;;;;;2.58;0.68;;;;;;;20.59;47.27;99333.17;1723725;81;21180;-45
2021/05/20 10:56:35;;;;;;;1.40;0.60;;;;;;;20.70;45.96;99338.27;1724455;81;21074;-38
2021/05/20 10:59:23;;;;;;;1.55;0.80;;;;;;;20.68;45.96;99344.59;1714038;81;21069;-45
2021/05/20 11:01:52;;;;;;;5.53;1.00;;;;;;;20.65;46.23;99332.82;1709223;81;21129;-46
2021/05/20 11:04:38;;;;;;;0.68;0.60;;;;;;;20.80;47.49;99332.41;1717930;81;21082;-44
2021/05/20 11:07:08;;;;;;;2.87;0.95;;;;;;;21.05;46.44;99336.72;1715669;81;22544;-46
2021/05/20 11:09:47;;;;;;;4.05;1.00;;;;;;;21.14;44.58;99335.30;1719979;81;21083;-40
2021/05/20 11:13:05;;;;;;;3.75;0.90;;;;;;;21.06;44.96;99340.23;1721713;81;21530;-39
2021/05/20 11:20:51;;;;;;;1.55;0.62;;;;;;;20.67;43.93;99341.55;1716301;81;21044;-45
2021/05/20 11:31:59;;;;;;;2.67;0.68;;;;;;;20.35;45.84;99339.31;1663110;84;21632;-43
2021/05/20 11:37:36;;;;;;;1.07;0.70;;;;;;;20.07;45.78;99333.35;1648708;85;20213;-43
2021/05/20 11:40:02;;;;;;;0.85;0.65;;;;;;;19.94;46.34;99339.77;1646114;85;21135;-38
2021/05/20 11:42:43;;;;;;;0.75;0.72;;;;;;;19.86;47.60;99332.22;1655983;85;21115;-46
2021/05/20 11:45:12;;;;;;;1.30;0.70;;;;;;;19.80;48.97;99331.69;1653184;85;21088;-44
2021/05/20 11:47:39;;;;;;;1.65;0.88;;;;;;;19.81;49.00;99329.42;1633182;86;21718;-38
2021/05/20 11:50:13;;;;;;;2.12;0.60;;;;;;;19.85;48.03;99333.64;1653047;85;21148;-45
2021/05/20 11:52:40;;;;;;;0.98;0.78;;;;;;;19.79;45.10;99333.49;1647984;85;21160;-46
2021/05/20 11:55:07;;;;;;;2.05;0.60;;;;;;;19.69;46.83;99326.95;1646974;85;21123;-46
2021/05/20 11:57:34;;;;;;;2.85;0.60;;;;;;;19.68;47.58;99337.65;1650501;85;21494;-43
2021/05/20 12:00:03;;;;;;;0.88;0.60;;;;;;;19.70;45.89;99330.45;1652575;85;21132;-44
2021/05/20 12:02:34;;;;;;;3.62;0.93;;;;;;;19.73;46.75;99333.81;1644019;85;21646;-38
2021/05/20 12:05:04;;;;;;;2.08;0.82;;;;;;;19.75;47.80;99321.31;1643051;85;21145;-38
2021/05/20 12:07:31;;;;;;;1.05;0.70;;;;;;;19.79;48.45;99327.33;1646839;85;21124;-38
2021/05/20 12:10:08;;;;;;;1.25;0.75;;;;;;;19.88;48.98;99331.66;1643240;86;21097;-38
2021/05/20 12:12:35;;;;;;;0.50;0.50;;;;;;;19.95;46.55;99334.02;1655120;85;21691;-45
2021/05/20 12:15:14;;;;;;;1.60;0.80;;;;;;;19.99;46.05;99338.20;1655992;85;21100;-44
2021/05/20 12:17:43;;;;;;;1.98;1.00;;;;;;;19.97;46.35;99336.11;1646589;85;21722;-45
2021/05/20 12:20:11;;;;;;;0.95;0.70;;;;;;;19.90;47.04;99338.23;1645237;85;21148;-45
2021/05/20 12:22:39;;;;;;;2.83;0.82;;;;;;;19.83;46.58;99331.08;1651074;85;21108;-44
2021/05/20 12:25:19;;;;;;;4.92;0.57;;;;;;;19.76;47.53;99324.82;1651284;85;21104;-45
2021/05/20 12:27:51;;;;;;;0.53;0.53;;;;;;;19.72;47.54;99322.82;1643339;85;21144;-37
2021/05/20 12:30:29;;;;;;;0.60;0.60;;;;;;;19.68;47.54;99322.58;1632636;86;22049;-45
2021/05/20 12:33:07;;;;;;;1.82;0.72;;;;;;;19.63;47.39;99325.47;1643707;86;21141;-45
2021/05/20 12:35:41;;;;;;;1.27;0.80;;;;;;;19.56;48.56;99328.03;1658418;84;21102;-43
2021/05/20 12:38:22;;;;;;;1.47;0.72;;;;;;;19.51;48.65;99327.41;1650785;85;21135;-37
2021/05/20 12:40:55;;;;;;;1.47;0.60;;;;;;;19.51;48.92;99327.88;1646683;86;21647;-45
2021/05/20 12:43:33;;;;;;;3.65;0.90;;;;;;;19.52;48.70;99322.48;1655004;86;21738;-44
2021/05/20 12:46:14;;;;;;;4.17;1.17;;;;;;;19.53;49.09;99325.52;1641377;86;21666;-38
2021/05/20 12:48:43;;;;;;;;;;;;;;;19.46;51.23;99321.95;1633333;84;21120;-44
2021/05/20 12:51:23;;;;;;;1.25;0.78;;;;;;;19.37;51.59;99325.95;1646719;86;20184;-37
2021/05/20 12:53:57;;;;;;;1.55;0.85;;;;;;;19.27;51.04;99324.22;1654191;85;21186;-44
2021/05/20 12:56:35;;;;;;;4.78;0.80;;;;;;;19.18;52.43;99335.28;1648596;85;21124;-47
2021/05/20 12:59:14;;;;;;;2.15;0.88;;;;;;;19.12;51.95;99332.94;1645356;86;21068;-37
2021/05/20 13:01:50;;;;;;;1.32;0.93;;;;;;;19.04;52.58;99340.43;1651718;86;21667;-37
2021/05/20 13:04:38;;;;;;;0.98;0.80;;;;;;;18.99;53.71;99338.47;1654054;86;21098;-37
2021/05/20 13:07:11;;;;;;;;;;;;;;;18.95;54.97;99333.78;1648177;85;21636;-38
2021/05/20 13:09:44;;;;;;;2.87;1.05;;;;;;;18.94;54.88;99337.37;1640990;85;20528;-37
2021/05/20 13:12:20;;;;;;;1.35;1.00;;;;;;;18.91;55.43;99338.86;1650382;85;21156;-37
2021/05/20 13:15:08;;;;;;;1.75;1.05;;;;;;;18.89;55.48;99338.06;1653989;85;21100;-43
2021/05/20 13:22:45;;;;;;;5.08;1.10;;;;;;;18.72;55.49;99347.30;1604610;86;21117;-37
2021/05/20 13:25:18;;;;;;;5.20;1.22;;;;;;;18.66;55.84;99349.73;1654883;87;21151;-43
2021/05/20 13:27:44;;;;;;;2.42;0.93;;;;;;;18.61;54.96;99349.09;1655026;85;21174;-37
2021/05/20 13:30:19;;;;;;;1.37;0.90;;;;;;;18.58;54.62;99342.16;1657891;86;21130;-43
2021/05/20 13:32:51;;;;;;;;;;;;;;;18.55;54.96;99346.73;1633611;86;21142;-43
2021/05/20 13:35:16;;;;;;;4.37;0.78;;;;;;;18.54;55.34;99340.59;1626714;87;20166;-44
2021/05/20 13:37:43;;;;;;;0.72;0.68;;;;;;;18.52;54.58;99340.28;1643109;86;21149;-37
2021/05/20 13:40:23;;;;;;;3.35;1.10;;;;;;;18.52;55.10;99352.20;1649808;85;21111;-37
2021/05/20 13:42:50;;;;;;;1.50;1.40;;;;;;;18.48;55.99;99338.23;1664454;86;21112;-37
2021/05/20 13:45:19;;;;;;;2.42;1.60;;;;;;;18.40;59.84;99348.34;1664893;86;21087;-43
2021/05/20 13:47:46;;;;;;;5.67;1.80;;;;;;;18.28;61.83;99348.91;1664748;86;21163;-43
2021/05/20 13:50:13;;;;;;;2.95;1.98;;;;;;;18.14;62.89;99349.53;1658914;86;21122;-43
2021/05/20 13:52:44;;;;;;;5.37;2.17;;;;;;;17.98;64.20;99348.07;1648733;86;21217;-43
2021/05/20 13:55:12;;;;;;;3.22;1.30;;;;;;;17.86;64.34;99346.41;1639879;87;21122;-42
